Sheridan, Nevada
Current Conditions -  °F | °C
As of 1:35 AM on Thursday 27 Nov 2014 (Local Time) from KMEV Reporting Station
Clear Clear  
Wind Chill: 34°   Ceiling: Unl
Heat Index: 37°   Visibility: 10mi
Dew Point: 19°   Wind: 5mph
Humidity: 48%   Direction: 80°E
Pressure: 30.33"   Gusts: NA
Location:  38.9417°N, 119.681°W
Report Text: KMEV 270935Z AUTO 08004KT 10SM CLR 03/M07 A3033 RMK AO2
Loading
Personal Weather Stations






























Interactive Weather Map New forecast layout! Learn more

10-Day Weather Forecast

Advertisements
Track Severe Weather on mobile